Fort Benton, MT (59442)

12:20 PM MST on November 28, 2014 (GMT -0700)
North Fort Benton | Change Station
CLOSE
Current Station
Personal Weather Station
Location: Fort Benton, MT
Elevation: 2641 ft
Nearby Weather Stations
Active Advisory: Winter Weather Advisory Active Notice: Record Report

Elev 2641 ft 47.83 °N, 110.66 °W | Updated 5 seconds ago

Partly Cloudy
Partly Cloudy
61.7 °F
Feels Like 61.7 °F
N
13.6
Wind Variable Wind from West
Gusts 25.9 mph

Today
High -- | Low -- °F
--% Chance of Precip.
Yesterday
High -- | Low -- °F
Precip. -- in
7:47 AM 4:34 PM
Waxing Crescent, 43% visible
Pressure 29.49 in
Visibility 10.0 miles
Clouds Clear
Dew Point 34 °F
Humidity 36%
Rainfall 0.00 in
Snow Depth Not available.
UV 2 out of 12
Pollen .10 out of 12
Air Quality Not available.
Flu Activity Not available.
METAR KGFA 281856Z AUTO 23030G42KT 10SM CLR 13/01 A2946 RMK AO2 PK WND 24042/11 SLP987 T01280011

More Conditions Fewer Conditions

Pressure 29.49 in
Visibility 10.0 miles
Clouds Clear
Dew Point 34 °F
Humidity 36%
Rainfall 0.00 in
Snow Depth Not available.
UV 2 out of 12
Pollen .10 out of 12
Air Quality Not available.
Flu Activity Not available.
METAR KGFA 281856Z AUTO 23030G42KT 10SM CLR 13/01 A2946 RMK AO2 PK WND 24042/11 SLP987 T01280011

More Conditions Fewer Conditions

10-Day Weather Forecast

Almanac

Astronomy

Nov. 28, 2014 Rise Set
Actual Time
Civil Twilight
Nautical Twilight
Astronomical Twilight
Moon
Length of Visible Light
Length of Day
Tomorrow will be .
, % of the Moon is Illuminated

Today's Extremes

State Highs State Lows

Community

WunderPhotos

Upload Photos

1,774,266 photos uploaded!

WunderBlogs® & News

Nearby

Air Quality

  Air Quality AQ Index Pollutant
Not available.

Snow Depth

Station Depth Elevation

Earthquake Activity

City Distance Mag. Time & Date
Minimum magnitude displayed is 2.5.

Coastal Water Temperatures

Place Temperature

Nearby Weather Stations